This is the latest recevied weather packets stored in our database for station/object KG5CK-1. If no packets are shown the sender has not sent any weather packets the latest 10 day(s).
| Time | Temp. | Humidity | Pressure | Rain* | Wind** | Luminosity | Snow |
|---|---|---|---|---|---|---|---|
| 1777950783 | 23.33° C | 74% | 1002.4 hPa | 0 mm | 3.58 m/s, 214° | - | - |
| 1777950723 | 23.33° C | 74% | 1002.4 hPa | 0 mm | 3.58 m/s, 214° | - | - |
| 1777950663 | 23.33° C | 74% | 1002.4 hPa | 0 mm | 3.58 m/s, 214° | - | - |
| 1777950603 | 23.33° C | 74% | 1002.3 hPa | 0 mm | 1.79 m/s, 131° | - | - |
| 1777950543 | 23.33° C | 74% | 1002.3 hPa | 0 mm | 1.79 m/s, 131° | - | - |
| 1777950482 | 23.33° C | 74% | 1002.3 hPa | 0 mm | 1.79 m/s, 131° | - | - |
| 1777950423 | 23.33° C | 74% | 1002.3 hPa | 0 mm | 1.79 m/s, 131° | - | - |
| 1777950363 | 23.33° C | 74% | 1002.3 hPa | 0 mm | 1.79 m/s, 131° | - | - |
| 1777950303 | 23.89° C | 73% | 1002.6 hPa | 0 mm | 2.68 m/s, 207° | - | - |
| 1777950242 | 23.89° C | 73% | 1002.6 hPa | 0 mm | 2.68 m/s, 207° | - | - |
| 1777950183 | 23.89° C | 73% | 1002.6 hPa | 0 mm | 2.68 m/s, 207° | - | - |
| 1777950123 | 23.89° C | 73% | 1002.6 hPa | 0 mm | 2.68 m/s, 207° | - | - |
| 1777950063 | 23.89° C | 73% | 1002.6 hPa | 0 mm | 2.68 m/s, 207° | - | - |
| 1777950003 | 23.89° C | 73% | 1002.8 hPa | 0 mm | 0.45 m/s, 125° | - | - |
| 1777949942 | 23.89° C | 73% | 1002.8 hPa | 0 mm | 0.45 m/s, 125° | - | - |
| 1777949883 | 23.89° C | 73% | 1002.8 hPa | 0 mm | 0.45 m/s, 125° | - | - |
| 1777949823 | 23.89° C | 73% | 1002.8 hPa | 0 mm | 0.45 m/s, 125° | - | - |
| 1777949763 | 23.89° C | 73% | 1002.8 hPa | 0 mm | 0.45 m/s, 125° | - | - |
| 1777949703 | 23.89° C | 73% | 1002.6 hPa | 0 mm | 2.24 m/s, 135° | - | - |
| 1777949643 | 23.89° C | 73% | 1002.6 hPa | 0 mm | 2.24 m/s, 135° | - | - |
| 1777949582 | 23.89° C | 73% | 1002.6 hPa | 0 mm | 2.24 m/s, 135° | - | - |
| 1777949522 | 23.89° C | 73% | 1002.6 hPa | 0 mm | 2.24 m/s, 135° | - | - |
| 1777949462 | 23.89° C | 73% | 1002.6 hPa | 0 mm | 2.24 m/s, 135° | - | - |
| 1777949403 | 23.89° C | 73% | 1002.3 hPa | 0 mm | 2.68 m/s, 105° | - | - |
| 1777949343 | 23.89° C | 73% | 1002.3 hPa | 0 mm | 2.68 m/s, 105° | - | - |
* Rain latest hour (hover to see other rain measurements)
** Current wind speed in m/s (hover to see current wind gust speed)